Time;durP1;ratioP1;P1;durP2;ratioP2;P2;SDS_P1;SDS_P2;PMS_P1;PMS_P2;Temp;Humidity;BMP_temperature;BMP_pressure;BME280_temperature;BME280_humidity;BME280_pressure;Samples;Min_cycle;Max_cycle;Signal;HPM_P1;HPM_P2
2023/02/17 00:01:45;;;;;;;;;;;;;;;3.48;100.00;97668.22;5064414;28;19936;-66
2023/02/17 00:04:10;;;;;;;;;;;;;;;3.40;100.00;97670.50;5059384;28;20066;-66
2023/02/17 00:06:36;;;;;;;;;;;;;;;3.18;100.00;97670.31;5063595;28;19962;-67
2023/02/17 00:09:01;;;;;;;;;;;;;;;3.17;100.00;97668.69;5063673;28;19923;-67
2023/02/17 00:11:30;;;;;;;;;;;;;;;3.18;100.00;97667.59;5059211;28;19944;-67
2023/02/17 00:13:55;;;;;;;;;;;;;;;3.20;100.00;97668.09;5079246;28;19920;-67
2023/02/17 00:16:22;;;;;;;;;;;;;;;3.29;100.00;97670.94;5057865;28;20543;-67
2023/02/17 00:18:51;;;;;;;;;;;;;;;3.28;100.00;97669.31;5063583;28;20257;-68
2023/02/17 00:21:21;;;;;;;;;;;;;;;3.37;100.00;97673.78;5064055;28;19920;-67
2023/02/17 00:23:47;;;;;;;;;;;;;;;3.51;100.00;97675.72;5083607;28;19920;-68
2023/02/17 00:26:13;;;;;;;;;;;;;;;3.58;100.00;97676.16;5077475;28;19924;-68
2023/02/17 00:28:38;;;;;;;;;;;;;;;3.52;100.00;97680.84;5077422;28;19924;-68
2023/02/17 00:31:04;;;;;;;;;;;;;;;3.35;100.00;97672.47;5056675;28;19920;-68
2023/02/17 00:33:30;;;;;;;;;;;;;;;3.38;100.00;97682.72;5062919;28;19917;-68
2023/02/17 00:35:55;;;;;;;;;;;;;;;3.28;100.00;97675.56;5064015;28;20046;-68
2023/02/17 00:38:20;;;;;;;;;;;;;;;3.38;100.00;97680.81;5040095;28;19924;-67
2023/02/17 00:40:45;;;;;;;;;;;;;;;3.44;100.00;97671.50;5063184;28;20015;-67
2023/02/17 00:43:12;;;;;;;;;;;;;;;3.42;100.00;97676.44;5058125;28;19940;-68
2023/02/17 00:45:38;;;;;;;;;;;;;;;3.29;100.00;97679.06;5063568;28;19921;-67
2023/02/17 00:48:03;;;;;;;;;;;;;;;3.38;100.00;97677.28;5060040;28;20050;-67
2023/02/17 00:50:28;;;;;;;;;;;;;;;3.41;100.00;97668.59;5061360;28;19956;-67
2023/02/17 00:52:53;;;;;;;;;;;;;;;3.42;100.00;97667.47;5062345;28;20305;-67
2023/02/17 00:55:19;;;;;;;;;;;;;;;3.47;100.00;97678.22;5058397;28;20002;-67
2023/02/17 00:57:44;;;;;;;;;;;;;;;3.43;100.00;97677.22;5062765;28;19916;-66
2023/02/17 01:00:09;;;;;;;;;;;;;;;3.50;100.00;97677.63;5057577;28;19916;-67
2023/02/17 01:02:35;;;;;;;;;;;;;;;3.49;100.00;97676.03;5062471;28;19916;-67
2023/02/17 01:05:00;;;;;;;;;;;;;;;3.44;100.00;97674.22;5063061;28;20022;-67
2023/02/17 01:07:25;;;;;;;;;;;;;;;3.54;100.00;97675.94;5057123;28;19916;-68
2023/02/17 01:09:51;;;;;;;;;;;;;;;3.60;100.00;97672.06;5063070;28;19990;-68
2023/02/17 01:12:16;;;;;;;;;;;;;;;3.63;100.00;97673.34;5057610;28;20370;-68
2023/02/17 01:14:41;;;;;;;;;;;;;;;3.66;100.00;97670.06;5044658;28;20015;-68
2023/02/17 01:17:07;;;;;;;;;;;;;;;3.73;100.00;97677.81;5056920;28;19921;-66
2023/02/17 01:19:32;;;;;;;;;;;;;;;3.72;100.00;97677.00;5062162;28;20369;-68
2023/02/17 01:21:57;;;;;;;;;;;;;;;3.65;100.00;97679.28;5063137;28;20600;-68
2023/02/17 01:24:23;;;;;;;;;;;;;;;3.68;100.00;97673.28;5057370;28;20652;-65
2023/02/17 01:26:48;;;;;;;;;;;;;;;3.71;100.00;97677.28;5061991;28;19985;-67
2023/02/17 01:29:13;;;;;;;;;;;;;;;3.67;100.00;97687.13;5057331;28;19966;-67
2023/02/17 01:31:39;;;;;;;;;;;;;;;3.71;100.00;97674.56;5062558;28;19916;-67
2023/02/17 01:34:04;;;;;;;;;;;;;;;3.77;100.00;97676.91;5056117;28;19916;-67
2023/02/17 01:36:30;;;;;;;;;;;;;;;3.78;100.00;97675.81;5061863;28;20358;-67
2023/02/17 01:38:56;;;;;;;;;;;;;;;3.78;100.00;97672.28;5061727;28;19974;-67
2023/02/17 01:41:22;;;;;;;;;;;;;;;3.73;100.00;97665.06;5057402;28;20172;-67
2023/02/17 01:44:07;;;;;;;;;;;;;;;3.73;100.00;97670.47;5065107;28;19923;-67
2023/02/17 01:46:37;;;;;;;;;;;;;;;3.69;100.00;97668.66;5046884;28;19924;-68
2023/02/17 01:49:04;;;;;;;;;;;;;;;3.65;100.00;97665.75;5043920;28;19920;-67
2023/02/17 01:51:33;;;;;;;;;;;;;;;3.59;100.00;97664.22;5061008;28;19981;-67
2023/02/17 01:53:59;;;;;;;;;;;;;;;3.56;100.00;97662.91;5061624;28;19970;-67
2023/02/17 01:56:25;;;;;;;;;;;;;;;3.53;100.00;97654.56;5056420;28;19924;-67
2023/02/17 01:59:00;;;;;;;;;;;;;;;3.45;100.00;97661.47;5061578;28;19920;-68
2023/02/17 02:01:25;;;;;;;;;;;;;;;3.41;100.00;97657.75;5057557;28;19920;-68
2023/02/17 02:03:51;;;;;;;;;;;;;;;3.43;100.00;97655.56;5061099;28;19916;-68
2023/02/17 02:06:18;;;;;;;;;;;;;;;3.49;100.00;97646.22;5057235;28;20381;-68
2023/02/17 02:08:52;;;;;;;;;;;;;;;3.47;100.00;97650.34;5072226;28;20354;-68
2023/02/17 02:11:17;;;;;;;;;;;;;;;3.64;100.00;97654.09;5068661;28;20385;-69
2023/02/17 02:13:43;;;;;;;;;;;;;;;3.75;100.00;97648.50;5067129;28;19962;-68
2023/02/17 02:16:28;;;;;;;;;;;;;;;3.75;100.00;97652.00;5061383;28;19920;-68
2023/02/17 02:18:57;;;;;;;;;;;;;;;3.71;100.00;97647.47;5060751;28;19923;-68
2023/02/17 02:21:25;;;;;;;;;;;;;;;3.72;100.00;97644.47;5055054;28;19924;-68
2023/02/17 02:24:08;;;;;;;;;;;;;;;3.60;100.00;97636.03;5061534;28;19916;-67
2023/02/17 02:26:43;;;;;;;;;;;;;;;3.36;100.00;97639.69;5076349;28;19963;-67
2023/02/17 02:29:11;;;;;;;;;;;;;;;3.17;100.00;97638.91;5056836;28;19967;-67
2023/02/17 02:31:47;;;;;;;;;;;;;;;3.11;100.00;97646.31;5061115;28;19938;-67
2023/02/17 02:34:19;;;;;;;;;;;;;;;3.25;100.00;97638.25;5056143;28;20019;-67
2023/02/17 02:36:44;;;;;;;;;;;;;;;3.29;100.00;97636.53;5060553;28;19959;-67
2023/02/17 02:39:11;;;;;;;;;;;;;;;3.58;100.00;97639.06;5056818;28;19965;-65
2023/02/17 02:41:36;;;;;;;;;;;;;;;3.61;100.00;97635.72;5061570;28;19923;-68
2023/02/17 02:44:04;;;;;;;;;;;;;;;3.57;100.00;97633.94;5061542;28;19920;-68
2023/02/17 02:46:29;;;;;;;;;;;;;;;3.62;100.00;97640.06;5059309;28;19927;-67
2023/02/17 02:48:54;;;;;;;;;;;;;;;3.69;100.00;97638.84;5061451;28;20264;-67
2023/02/17 02:51:24;;;;;;;;;;;;;;;3.65;100.00;97630.50;5056173;28;19970;-68
2023/02/17 02:54:11;;;;;;;;;;;;;;;3.58;100.00;97630.94;5061013;28;20015;-67
2023/02/17 02:56:54;;;;;;;;;;;;;;;3.71;100.00;97631.22;5076120;28;19917;-67
2023/02/17 02:59:28;;;;;;;;;;;;;;;3.77;100.00;97624.63;5056895;28;20412;-67
2023/02/17 03:01:57;;;;;;;;;;;;;;;3.94;100.00;97624.03;5061264;28;19943;-67
2023/02/17 03:04:37;;;;;;;;;;;;;;;3.89;100.00;97630.38;5055804;28;19951;-67
2023/02/17 03:07:07;;;;;;;;;;;;;;;4.00;100.00;97630.97;5058689;28;19998;-67
2023/02/17 03:09:33;;;;;;;;;;;;;;;3.93;100.00;97625.16;5061120;28;19925;-68
2023/02/17 03:11:58;;;;;;;;;;;;;;;3.90;100.00;97621.09;5061799;28;19996;-68
2023/02/17 03:14:25;;;;;;;;;;;;;;;3.75;100.00;97611.38;5057054;28;19920;-67
2023/02/17 03:16:51;;;;;;;;;;;;;;;3.82;100.00;97616.41;5063965;28;19917;-67
2023/02/17 03:19:17;;;;;;;;;;;;;;;3.84;100.00;97616.91;5060170;28;19939;-68
2023/02/17 03:21:42;;;;;;;;;;;;;;;3.87;100.00;97613.59;5064839;28;19920;-68
2023/02/17 03:24:08;;;;;;;;;;;;;;;3.93;100.00;97615.09;5060503;28;19999;-67
2023/02/17 03:26:33;;;;;;;;;;;;;;;3.98;100.00;97617.72;5064254;28;20395;-67
2023/02/17 03:28:59;;;;;;;;;;;;;;;4.02;100.00;97628.75;5064694;28;19924;-67
2023/02/17 03:31:24;;;;;;;;;;;;;;;3.91;100.00;97619.22;5051693;28;19943;-68
2023/02/17 03:33:50;;;;;;;;;;;;;;;3.82;100.00;97609.06;5064614;28;19959;-68
2023/02/17 03:36:15;;;;;;;;;;;;;;;3.89;100.00;97618.69;5059322;28;19920;-67
2023/02/17 03:38:40;;;;;;;;;;;;;;;3.85;100.00;97621.19;5064640;28;19939;-67
2023/02/17 03:41:06;;;;;;;;;;;;;;;3.87;100.00;97620.91;5059413;28;19962;-66
2023/02/17 03:43:31;;;;;;;;;;;;;;;3.92;100.00;97634.38;5064356;28;19969;-68
2023/02/17 03:45:56;;;;;;;;;;;;;;;3.95;100.00;97634.56;5065976;28;20374;-67
2023/02/17 03:48:21;;;;;;;;;;;;;;;3.99;100.00;97624.72;5061878;28;20416;-68
2023/02/17 03:50:47;;;;;;;;;;;;;;;4.12;100.00;97620.41;5066346;28;20380;-67
2023/02/17 03:53:12;;;;;;;;;;;;;;;4.24;100.00;97627.25;5059372;28;19931;-68
2023/02/17 03:55:37;;;;;;;;;;;;;;;4.22;100.00;97619.41;5064692;28;20714;-68
2023/02/17 03:58:03;;;;;;;;;;;;;;;4.23;100.00;97626.44;5062241;28;19917;-67
2023/02/17 04:00:29;;;;;;;;;;;;;;;4.26;100.00;97622.31;5062952;28;19923;-67
2023/02/17 04:02:55;;;;;;;;;;;;;;;4.21;100.00;97624.03;5063658;28;19920;-67
2023/02/17 04:05:21;;;;;;;;;;;;;;;4.03;100.00;97624.94;5059235;28;19921;-67
2023/02/17 04:07:46;;;;;;;;;;;;;;;3.97;100.00;97620.72;5064058;28;19927;-67
2023/02/17 04:10:12;;;;;;;;;;;;;;;4.04;100.00;97626.53;5058574;28;20532;-67
2023/02/17 04:12:39;;;;;;;;;;;;;;;4.07;100.00;97622.41;5063699;28;19947;-67
2023/02/17 04:15:05;;;;;;;;;;;;;;;4.15;100.00;97621.72;5058941;28;20007;-67
2023/02/17 04:17:31;;;;;;;;;;;;;;;4.18;100.00;97632.78;5064356;28;20347;-67
2023/02/17 04:19:57;;;;;;;;;;;;;;;4.24;100.00;97629.97;5063698;28;20324;-66
2023/02/17 04:22:23;;;;;;;;;;;;;;;4.26;100.00;97633.16;5059315;28;19924;-68
2023/02/17 04:24:49;;;;;;;;;;;;;;;4.36;100.00;97632.97;5064272;28;19916;-68
2023/02/17 04:27:14;;;;;;;;;;;;;;;4.38;100.00;97636.97;5057723;28;19964;-68
2023/02/17 04:29:39;;;;;;;;;;;;;;;4.38;100.00;97641.59;5064182;28;20379;-68
2023/02/17 04:32:05;;;;;;;;;;;;;;;4.40;100.00;97629.34;5059059;28;19962;-68
2023/02/17 04:34:30;;;;;;;;;;;;;;;4.37;100.00;97639.97;5063006;28;19917;-68
2023/02/17 04:36:55;;;;;;;;;;;;;;;4.33;100.00;97637.06;5062917;28;19951;-68
2023/02/17 04:39:20;;;;;;;;;;;;;;;4.40;100.00;97632.03;5059179;28;19916;-68
2023/02/17 04:41:46;;;;;;;;;;;;;;;4.39;100.00;97632.34;5077960;28;19974;-68
2023/02/17 04:44:11;;;;;;;;;;;;;;;4.43;100.00;97622.50;5074661;28;19923;-68
2023/02/17 04:46:36;;;;;;;;;;;;;;;4.40;100.00;97623.09;5071435;28;20428;-68
2023/02/17 04:49:02;;;;;;;;;;;;;;;4.37;100.00;97626.41;5067932;28;19928;-67
2023/02/17 04:51:27;;;;;;;;;;;;;;;4.28;100.00;97620.09;5060912;28;19923;-67
2023/02/17 04:53:53;;;;;;;;;;;;;;;4.32;100.00;97623.81;5078614;28;19967;-68
2023/02/17 04:56:19;;;;;;;;;;;;;;;4.34;100.00;97627.00;5057819;28;20369;-68
2023/02/17 04:58:44;;;;;;;;;;;;;;;4.42;100.00;97617.38;5063064;28;19931;-68
2023/02/17 05:01:09;;;;;;;;;;;;;;;4.59;100.00;97617.53;5058039;28;19950;-67
2023/02/17 05:03:35;;;;;;;;;;;;;;;4.69;100.00;97611.09;5068021;28;19916;-68
2023/02/17 05:06:00;;;;;;;;;;;;;;;4.70;100.00;97612.69;5080391;28;19920;-70
2023/02/17 05:08:25;;;;;;;;;;;;;;;4.65;100.00;97612.81;5075712;28;19919;-68
2023/02/17 05:10:51;;;;;;;;;;;;;;;4.65;100.00;97615.53;5077616;28;19922;-66
2023/02/17 05:13:16;;;;;;;;;;;;;;;4.48;100.00;97624.28;5057455;28;20381;-67
2023/02/17 05:15:42;;;;;;;;;;;;;;;4.36;100.00;97616.69;5062455;28;19920;-68
2023/02/17 05:18:07;;;;;;;;;;;;;;;4.06;100.00;97618.13;5057623;28;19923;-68
2023/02/17 05:20:32;;;;;;;;;;;;;;;4.09;100.00;97618.31;5062726;28;19921;-68
2023/02/17 05:22:58;;;;;;;;;;;;;;;4.09;100.00;97617.50;5062907;28;20385;-70
2023/02/17 05:25:23;;;;;;;;;;;;;;;4.15;100.00;97614.38;5058562;28;20651;-70
2023/02/17 05:27:48;;;;;;;;;;;;;;;4.26;100.00;97616.91;5062311;28;19962;-70
2023/02/17 05:30:13;;;;;;;;;;;;;;;4.39;100.00;97624.19;5057893;28;19917;-68
2023/02/17 05:32:39;;;;;;;;;;;;;;;4.46;100.00;97624.59;5062276;28;20427;-70
2023/02/17 05:35:04;;;;;;;;;;;;;;;4.58;100.00;97621.38;5058088;28;20011;-71
2023/02/17 05:37:30;;;;;;;;;;;;;;;4.62;100.00;97625.06;5061320;28;19924;-70
2023/02/17 05:39:55;;;;;;;;;;;;;;;4.67;100.00;97621.47;5062299;28;19939;-70
2023/02/17 05:42:20;;;;;;;;;;;;;;;4.67;100.00;97624.97;5057902;28;19924;-65
2023/02/17 05:44:46;;;;;;;;;;;;;;;4.91;100.00;97619.25;5061842;28;20290;-68
2023/02/17 05:47:11;;;;;;;;;;;;;;;5.23;100.00;97624.78;5056794;28;20390;-67
2023/02/17 05:49:36;;;;;;;;;;;;;;;5.19;100.00;97626.50;5044238;28;19970;-67
2023/02/17 05:52:01;;;;;;;;;;;;;;;5.06;100.00;97626.25;5061765;28;20413;-67
2023/02/17 05:54:27;;;;;;;;;;;;;;;5.15;100.00;97626.34;5057264;28;19920;-67
2023/02/17 05:56:52;;;;;;;;;;;;;;;5.38;100.00;97629.03;5061271;28;20452;-65
2023/02/17 05:59:17;;;;;;;;;;;;;;;5.64;98.13;97626.47;5058005;28;19927;-67
2023/02/17 06:01:42;;;;;;;;;;;;;;;5.82;97.00;97633.59;5061785;28;20442;-67
2023/02/17 06:04:08;;;;;;;;;;;;;;;5.66;97.84;97627.75;5056854;28;19924;-67
2023/02/17 06:06:33;;;;;;;;;;;;;;;5.55;98.90;97635.38;5061946;28;20411;-67
2023/02/17 06:08:58;;;;;;;;;;;;;;;5.38;100.00;97626.31;5062101;28;19920;-67
2023/02/17 06:11:24;;;;;;;;;;;;;;;5.29;100.00;97623.53;5057274;28;19920;-67
2023/02/17 06:13:49;;;;;;;;;;;;;;;5.03;100.00;97624.16;5061882;28;19917;-68
2023/02/17 06:16:15;;;;;;;;;;;;;;;4.85;100.00;97631.34;5057299;28;19917;-67
2023/02/17 06:18:40;;;;;;;;;;;;;;;4.87;100.00;97631.06;5061776;28;19931;-67
2023/02/17 06:21:05;;;;;;;;;;;;;;;4.81;100.00;97616.78;5056058;28;19924;-67
2023/02/17 06:23:30;;;;;;;;;;;;;;;4.88;100.00;97624.50;5061795;28;20003;-68
2023/02/17 06:25:56;;;;;;;;;;;;;;;5.03;100.00;97620.66;5061436;28;19943;-68
2023/02/17 06:28:21;;;;;;;;;;;;;;;5.11;100.00;97622.59;5057281;28;19933;-68
2023/02/17 06:30:47;;;;;;;;;;;;;;;5.22;100.00;97625.88;5061853;28;19923;-68
2023/02/17 06:33:12;;;;;;;;;;;;;;;5.31;100.00;97627.56;5059707;28;19921;-68
2023/02/17 06:35:38;;;;;;;;;;;;;;;5.36;100.00;97641.00;5061398;28;20003;-67
2023/02/17 06:38:03;;;;;;;;;;;;;;;5.38;100.00;97632.53;5058147;28;19916;-67
2023/02/17 06:40:28;;;;;;;;;;;;;;;5.46;100.00;97639.16;5059764;28;19924;-68
2023/02/17 06:42:54;;;;;;;;;;;;;;;5.69;99.95;97634.47;5062277;28;20004;-68
2023/02/17 06:45:19;;;;;;;;;;;;;;;5.85;96.10;97640.31;5056605;28;19925;-67
2023/02/17 06:47:44;;;;;;;;;;;;;;;5.88;96.57;97645.13;5061971;28;19920;-69
2023/02/17 06:50:10;;;;;;;;;;;;;;;5.96;95.96;97649.84;5057322;28;19917;-69
2023/02/17 06:52:35;;;;;;;;;;;;;;;5.98;96.30;97655.78;5064642;28;19920;-70
2023/02/17 06:55:01;;;;;;;;;;;;;;;6.03;96.26;97649.38;5064823;28;19924;-69
2023/02/17 06:57:26;;;;;;;;;;;;;;;6.18;93.82;97661.78;5060082;28;20277;-67
2023/02/17 06:59:51;;;;;;;;;;;;;;;6.26;93.70;97661.00;5065573;28;20388;-67
2023/02/17 07:02:17;;;;;;;;;;;;;;;6.27;96.73;97657.19;5060530;28;19923;-67
2023/02/17 07:04:42;;;;;;;;;;;;;;;6.31;97.02;97656.22;5064897;28;20339;-68
2023/02/17 07:07:08;;;;;;;;;;;;;;;6.37;96.42;97665.03;5060051;28;19935;-68
2023/02/17 07:09:34;;;;;;;;;;;;;;;6.45;96.69;97663.47;5065959;28;20015;-68
2023/02/17 07:12:00;;;;;;;;;;;;;;;6.51;98.29;97670.38;5065181;28;20254;-68
2023/02/17 07:14:25;;;;;;;;;;;;;;;6.57;97.68;97677.28;5075456;28;19979;-68
2023/02/17 07:16:51;;;;;;;;;;;;;;;6.61;100.00;97677.44;5083479;28;20028;-69
2023/02/17 07:19:16;;;;;;;;;;;;;;;6.64;100.00;97674.09;5071706;28;19916;-69
2023/02/17 07:21:42;;;;;;;;;;;;;;;6.67;100.00;97673.47;5087425;28;20493;-67
2023/02/17 07:24:07;;;;;;;;;;;;;;;6.88;98.10;97668.22;5060729;28;19932;-68
2023/02/17 07:26:36;;;;;;;;;;;;;;;6.86;96.74;97670.44;5063425;28;19924;-68
2023/02/17 07:29:02;;;;;;;;;;;;;;;6.61;98.69;97670.09;5063834;28;19927;-69
2023/02/17 07:31:28;;;;;;;;;;;;;;;6.60;96.81;97673.13;5061555;28;19923;-68
2023/02/17 07:33:53;;;;;;;;;;;;;;;6.59;98.55;97671.50;5064738;28;20270;-69
2023/02/17 07:36:18;;;;;;;;;;;;;;;6.35;100.00;97680.88;5060007;28;19920;-68
2023/02/17 07:38:44;;;;;;;;;;;;;;;6.24;100.00;97683.09;5064371;28;19917;-68
2023/02/17 07:41:10;;;;;;;;;;;;;;;6.11;100.00;97684.00;5059164;28;19917;-68
2023/02/17 07:43:36;;;;;;;;;;;;;;;6.29;100.00;97679.44;5065659;28;19981;-68
2023/02/17 07:46:02;;;;;;;;;;;;;;;6.45;100.00;97680.59;5063766;28;20003;-69
2023/02/17 07:48:27;;;;;;;;;;;;;;;6.84;100.00;97680.84;5061042;28;19924;-69
2023/02/17 07:50:52;;;;;;;;;;;;;;;7.35;95.89;97675.78;5064140;28;20346;-69
2023/02/17 07:53:18;;;;;;;;;;;;;;;7.77;91.68;97676.81;5059202;28;19924;-69
2023/02/17 07:55:43;;;;;;;;;;;;;;;8.02;89.85;97682.53;5064595;28;19920;-70
2023/02/17 07:58:08;;;;;;;;;;;;;;;8.10;90.47;97683.63;5061094;28;19917;-69
2023/02/17 08:00:33;;;;;;;;;;;;;;;8.25;89.91;97677.66;5065100;28;19916;-69
2023/02/17 08:02:59;;;;;;;;;;;;;;;8.32;91.01;97682.56;5065111;28;19920;-69
2023/02/17 08:05:24;;;;;;;;;;;;;;;8.34;93.21;97683.88;5059422;28;19921;-69
2023/02/17 08:13:17;;;;;;;;;;;;;;;8.29;96.03;97694.16;5046389;28;19964;-67
2023/02/17 08:13:20;;;;;;;;;;;;;;;8.50;97.04;97702.44;5058339;28;19926;-69
2023/02/17 08:15:45;;;;;;;;;;;;;;;8.59;98.36;97703.22;5063742;28;19920;-69
2023/02/17 08:18:10;;;;;;;;;;;;;;;8.60;97.09;97704.81;5059196;28;20318;-69
2023/02/17 08:20:36;;;;;;;;;;;;;;;8.81;95.98;97713.06;5063286;28;19923;-67
2023/02/17 08:23:02;;;;;;;;;;;;;;;8.95;93.82;97718.28;5062066;28;19967;-67
2023/02/17 08:25:29;;;;;;;;;;;;;;;9.34;96.32;97717.03;5044297;28;19928;-68
2023/02/17 08:27:55;;;;;;;;;;;;;;;9.61;92.87;97714.88;5063340;28;19927;-69
2023/02/17 08:30:20;;;;;;;;;;;;;;;9.71;90.87;97716.44;5040748;28;20293;-69
2023/02/17 08:32:46;;;;;;;;;;;;;;;9.81;90.15;97715.19;5061881;28;19924;-69
2023/02/17 08:35:11;;;;;;;;;;;;;;;9.91;85.55;97718.31;5065270;28;19921;-68
2023/02/17 08:37:37;;;;;;;;;;;;;;;10.05;86.80;97718.03;5066865;28;19916;-68
2023/02/17 08:40:02;;;;;;;;;;;;;;;10.06;85.21;97716.88;5060146;28;19920;-69
2023/02/17 08:42:30;;;;;;;;;;;;;;;10.16;85.51;97725.81;5061300;28;20340;-68
2023/02/17 08:44:55;;;;;;;;;;;;;;;10.31;82.81;97725.97;5063773;28;19920;-69
2023/02/17 08:47:21;;;;;;;;;;;;;;;10.27;79.67;97733.22;5057674;28;20590;-69
2023/02/17 08:49:46;;;;;;;;;;;;;;;10.08;71.98;97736.50;5063531;28;19916;-67
2023/02/17 08:52:11;;;;;;;;;;;;;;;9.99;71.26;97737.72;5057899;28;19984;-69
2023/02/17 08:54:37;;;;;;;;;;;;;;;9.89;69.24;97739.75;5061366;28;19950;-68
2023/02/17 08:57:02;;;;;;;;;;;;;;;10.01;66.57;97744.47;5060075;28;19921;-70
2023/02/17 08:59:28;;;;;;;;;;;;;;;10.01;66.39;97741.75;5060066;28;20369;-69
2023/02/17 09:01:53;;;;;;;;;;;;;;;10.00;65.75;97736.59;5062122;28;20317;-68
2023/02/17 09:04:18;;;;;;;;;;;;;;;10.00;66.99;97736.59;5057595;28;19917;-69
2023/02/17 09:06:45;;;;;;;;;;;;;;;9.96;64.62;97722.78;5060605;28;19975;-69
2023/02/17 09:09:11;;;;;;;;;;;;;;;10.28;61.74;97732.09;5057060;28;20365;-68
2023/02/17 09:11:37;;;;;;;;;;;;;;;10.06;63.20;97736.03;5063513;28;20290;-70
2023/02/17 09:14:03;;;;;;;;;;;;;;;10.06;64.37;97737.97;5058349;28;19932;-68
2023/02/17 09:16:28;;;;;;;;;;;;;;;10.07;63.06;97740.38;5060797;28;19917;-70
2023/02/17 09:18:54;;;;;;;;;;;;;;;10.17;63.87;97743.81;5063930;28;19936;-68
2023/02/17 09:21:20;;;;;;;;;;;;;;;10.25;63.19;97751.16;5057318;28;20531;-68
2023/02/17 09:23:46;;;;;;;;;;;;;;;10.14;63.51;97745.31;5062314;28;19916;-68
2023/02/17 09:26:12;;;;;;;;;;;;;;;10.06;62.42;97759.88;5057063;28;20362;-69
2023/02/17 09:28:38;;;;;;;;;;;;;;;10.09;63.39;97765.47;5061753;28;19921;-70
2023/02/17 09:31:14;;;;;;;;;;;;;;;10.11;63.51;97763.19;5074330;28;19920;-71
2023/02/17 09:33:39;;;;;;;;;;;;;;;10.23;62.47;97759.69;5063057;28;19916;-69
2023/02/17 09:36:05;;;;;;;;;;;;;;;10.28;62.42;97759.50;5057023;28;20365;-68
2023/02/17 09:38:31;;;;;;;;;;;;;;;10.19;62.76;97758.78;5061921;28;20107;-69
2023/02/17 09:41:01;;;;;;;;;;;;;;;10.19;64.00;97768.91;5062612;28;19916;-69
2023/02/17 09:43:28;;;;;;;;;;;;;;;10.34;62.54;97765.56;5059168;28;19920;-67
2023/02/17 09:45:56;;;;;;;;;;;;;;;10.46;64.57;97764.78;5061524;28;19924;-69
2023/02/17 09:48:25;;;;;;;;;;;;;;;10.43;64.54;97766.28;5069817;28;19967;-70
2023/02/17 09:51:11;;;;;;;;;;;;;;;10.64;61.45;97774.41;5077969;28;19954;-69
2023/02/17 09:53:39;;;;;;;;;;;;;;;10.43;61.61;97763.53;5080071;28;19932;-69
2023/02/17 09:56:08;;;;;;;;;;;;;;;10.37;60.91;97762.16;5068191;28;19917;-69
2023/02/17 09:58:37;;;;;;;;;;;;;;;10.34;61.40;97760.09;5068087;28;20451;-68
2023/02/17 10:01:10;;;;;;;;;;;;;;;10.32;61.28;97751.44;5059265;28;20446;-70
2023/02/17 10:03:40;;;;;;;;;;;;;;;10.30;61.68;97754.47;5061809;28;19928;-68
2023/02/17 10:06:12;;;;;;;;;;;;;;;10.27;62.07;97768.03;5056509;28;19943;-68
2023/02/17 10:09:00;;;;;;;;;;;;;;;10.51;61.32;97762.66;5061317;28;19992;-68
2023/02/17 10:11:28;;;;;;;;;;;;;;;10.75;60.61;97750.13;5021878;28;19973;-68
2023/02/17 10:13:56;;;;;;;;;;;;;;;11.14;60.62;97757.97;5061352;28;20454;-68
2023/02/17 10:16:29;;;;;;;;;;;;;;;11.12;60.02;97765.75;5056232;28;20206;-68
2023/02/17 10:19:00;;;;;;;;;;;;;;;11.21;60.03;97761.72;5060360;28;19927;-69
2023/02/17 10:21:31;;;;;;;;;;;;;;;11.13;60.14;97773.63;5056661;28;19921;-69
2023/02/17 10:23:56;;;;;;;;;;;;;;;10.96;60.53;97771.13;5052524;28;19916;-68
2023/02/17 10:26:22;;;;;;;;;;;;;;;10.84;60.63;97763.69;5055540;28;20279;-67
2023/02/17 10:28:59;;;;;;;;;;;;;;;10.74;61.32;97755.94;5061117;28;19921;-67
2023/02/17 10:31:30;;;;;;;;;;;;;;;10.65;61.60;97765.03;5056309;28;19916;-69
2023/02/17 10:33:55;;;;;;;;;;;;;;;10.62;62.36;97757.50;5060271;28;19917;-70
2023/02/17 10:36:29;;;;;;;;;;;;;;;10.57;62.71;97770.63;5055876;28;20477;-69
2023/02/17 10:38:59;;;;;;;;;;;;;;;10.58;62.77;97773.03;5061640;28;19923;-69
2023/02/17 10:41:26;;;;;;;;;;;;;;;10.61;62.72;97764.13;5056497;28;20320;-69
2023/02/17 10:43:52;;;;;;;;;;;;;;;10.78;62.78;97763.09;5061148;28;19920;-69
2023/02/17 10:46:22;;;;;;;;;;;;;;;10.86;63.13;97759.47;5055625;28;19926;-70
2023/02/17 10:48:52;;;;;;;;;;;;;;;11.05;62.42;97760.84;5061686;28;19964;-69
2023/02/17 10:51:20;;;;;;;;;;;;;;;10.99;62.43;97754.78;5055270;28;20317;-68
2023/02/17 10:53:49;;;;;;;;;;;;;;;11.12;62.20;97760.25;5062308;28;19920;-69
2023/02/17 10:56:37;;;;;;;;;;;;;;;11.09;62.53;97746.09;5056248;28;19920;-69
2023/02/17 10:59:11;;;;;;;;;;;;;;;11.21;61.49;97744.47;5059824;28;19924;-71
2023/02/17 11:01:37;;;;;;;;;;;;;;;11.53;60.53;97741.91;5044223;28;19916;-69
2023/02/17 11:04:07;;;;;;;;;;;;;;;11.63;59.62;97727.69;5058789;28;19924;-70
2023/02/17 11:06:40;;;;;;;;;;;;;;;11.97;59.27;97731.00;5060328;28;19928;-70
2023/02/17 11:09:15;;;;;;;;;;;;;;;12.19;58.77;97735.94;5056304;28;20070;-70
2023/02/17 11:11:48;;;;;;;;;;;;;;;11.98;58.47;97744.38;5061277;28;19999;-69
2023/02/17 11:14:19;;;;;;;;;;;;;;;12.04;58.48;97739.44;5056413;28;19921;-70
2023/02/17 11:16:47;;;;;;;;;;;;;;;11.94;59.33;97743.50;5060876;28;19978;-69
2023/02/17 11:19:24;;;;;;;;;;;;;;;11.71;60.04;97743.22;5055592;28;19974;-68
2023/02/17 11:21:50;;;;;;;;;;;;;;;11.70;60.42;97738.88;5042776;28;19935;-70
2023/02/17 11:24:16;;;;;;;;;;;;;;;11.62;61.15;97723.34;5055971;28;19917;-69
2023/02/17 11:26:41;;;;;;;;;;;;;;;11.86;60.50;97733.44;5060450;28;19927;-68
2023/02/17 11:29:07;;;;;;;;;;;;;;;12.32;59.42;97741.38;5056431;28;19916;-68
2023/02/17 11:31:33;;;;;;;;;;;;;;;12.62;58.91;97741.72;5061476;28;19917;-69
2023/02/17 11:34:09;;;;;;;;;;;;;;;12.39;59.10;97734.09;5074511;28;19940;-69
2023/02/17 11:36:34;;;;;;;;;;;;;;;12.59;58.53;97724.00;5065484;28;19920;-68
2023/02/17 11:39:12;;;;;;;;;;;;;;;12.45;59.16;97725.59;5079746;28;19923;-69
2023/02/17 11:41:38;;;;;;;;;;;;;;;12.28;60.36;97718.47;5065699;28;19924;-69
2023/02/17 11:44:03;;;;;;;;;;;;;;;12.17;60.47;97715.47;5060809;28;19958;-70
2023/02/17 11:47:01;;;;;;;;;;;;;;;12.08;61.17;97714.81;5063008;28;19921;-68
2023/02/17 11:49:32;;;;;;;;;;;;;;;12.30;60.79;97714.25;5025327;28;19921;-69
2023/02/17 11:52:10;;;;;;;;;;;;;;;12.44;60.34;97713.78;5063982;28;19920;-69
2023/02/17 11:54:51;;;;;;;;;;;;;;;12.53;60.24;97711.69;5064038;28;19927;-69
2023/02/17 11:57:52;;;;;;;;;;;;;;;12.42;60.78;97716.91;5060561;28;19924;-69
2023/02/17 12:00:17;;;;;;;;;;;;;;;12.36;63.06;97710.06;5014286;28;20455;-69
2023/02/17 12:02:52;;;;;;;;;;;;;;;12.25;63.67;97720.00;5050187;28;19916;-69
2023/02/17 12:05:25;;;;;;;;;;;;;;;12.23;68.91;97708.56;5059314;28;19955;-69
2023/02/17 12:08:02;;;;;;;;;;;;;;;11.62;70.24;97704.16;5069177;28;19916;-69
2023/02/17 12:10:36;;;;;;;;;;;;;;;11.74;72.78;97709.59;5072890;28;19916;-69
2023/02/17 12:13:01;;;;;;;;;;;;;;;11.83;71.66;97702.00;5075685;28;19920;-69
2023/02/17 12:15:39;;;;;;;;;;;;;;;11.64;72.40;97710.09;5059745;28;20192;-68
2023/02/17 12:18:18;;;;;;;;;;;;;;;11.71;72.96;97695.78;5058485;28;20400;-69
2023/02/17 12:21:02;;;;;;;;;;;;;;;11.79;72.41;97695.63;5064153;28;20003;-68
2023/02/17 12:23:39;;;;;;;;;;;;;;;11.96;71.85;97694.53;5061213;28;19935;-69
2023/02/17 12:26:31;;;;;;;;;;;;;;;11.97;70.92;97687.88;5058936;28;19976;-69
2023/02/17 12:28:59;;;;;;;;;;;;;;;12.15;69.79;97687.56;5073210;28;19927;-69
2023/02/17 12:31:24;;;;;;;;;;;;;;;12.19;68.73;97680.19;5069461;28;19916;-69
2023/02/17 12:33:56;;;;;;;;;;;;;;;12.28;68.24;97682.78;5069092;28;19923;-69
2023/02/17 12:36:24;;;;;;;;;;;;;;;12.47;67.21;97680.13;5061708;28;19960;-69
2023/02/17 12:38:55;;;;;;;;;;;;;;;12.50;66.68;97678.63;5064156;28;19916;-68
2023/02/17 12:41:20;;;;;;;;;;;;;;;12.35;67.01;97682.97;5058798;28;19942;-67
2023/02/17 12:44:05;;;;;;;;;;;;;;;12.49;66.25;97669.56;5063124;28;20387;-69
2023/02/17 12:46:38;;;;;;;;;;;;;;;12.36;67.66;97668.88;5061761;28;20389;-69
2023/02/17 12:49:09;;;;;;;;;;;;;;;12.37;68.39;97669.66;5057028;28;19985;-71
2023/02/17 12:51:41;;;;;;;;;;;;;;;12.43;67.23;97666.28;5062583;28;19927;-69
2023/02/17 12:54:17;;;;;;;;;;;;;;;12.54;67.06;97669.31;5058296;28;19955;-67